createdAt,value
2022-12-09T00:03:43.895Z,99105.03
2022-12-09T00:07:50.660Z,99093.25
2022-12-09T00:11:52.860Z,99090.91
2022-12-09T00:15:54.797Z,99097.78
2022-12-09T00:19:56.613Z,99099.59
2022-12-09T00:24:00.211Z,99093.75
2022-12-09T00:28:02.107Z,99103.03
2022-12-09T00:32:04.176Z,99088.63
2022-12-09T00:36:08.419Z,99082.06
2022-12-09T00:40:11.147Z,99089.09
2022-12-09T00:44:13.480Z,99088.13
2022-12-09T00:48:15.233Z,99096.28
2022-12-09T00:52:17.139Z,99099.03
2022-12-09T00:56:18.921Z,99093.50
2022-12-09T01:00:21.045Z,99099.69
2022-12-09T01:04:24.955Z,99107.88
2022-12-09T01:08:27.327Z,99095.81
2022-12-09T01:12:29.204Z,99092.94
2022-12-09T01:16:33.648Z,99101.75
2022-12-09T01:20:35.835Z,99104.34
2022-12-09T01:24:37.996Z,99098.66
2022-12-09T01:28:40.256Z,99099.81
2022-12-09T01:32:42.393Z,99104.94
2022-12-09T01:36:44.699Z,99093.69
2022-12-09T01:40:47.241Z,99095.25
2022-12-09T01:45:20.063Z,99100.59
2022-12-09T01:49:43.210Z,99102.00
2022-12-09T01:53:47.686Z,99102.69
2022-12-09T01:57:49.649Z,99095.44
2022-12-09T02:01:53.225Z,99095.97
2022-12-09T02:05:55.186Z,99099.06
2022-12-09T02:09:57.165Z,99091.47
2022-12-09T02:14:35.482Z,99100.88
2022-12-09T02:18:42.911Z,99085.63
2022-12-09T02:22:58.668Z,99095.44
2022-12-09T02:27:20.695Z,99082.47
2022-12-09T02:32:02.963Z,99084.13
2022-12-09T02:36:16.538Z,99075.06
2022-12-09T02:40:22.540Z,99077.00
2022-12-09T02:44:24.413Z,99080.66
2022-12-09T02:48:32.350Z,99081.53
2022-12-09T02:52:34.367Z,99092.38
2022-12-09T02:56:36.386Z,99081.72
2022-12-09T03:00:51.021Z,99087.97
2022-12-09T03:05:52.906Z,99093.69
2022-12-09T03:10:27.871Z,99082.53
2022-12-09T03:14:37.269Z,99072.66
2022-12-09T03:18:49.036Z,99085.94
2022-12-09T03:22:51.475Z,99081.00
2022-12-09T03:26:53.297Z,99086.50
2022-12-09T03:30:55.458Z,99075.88
2022-12-09T03:35:11.390Z,99072.31
2022-12-09T03:39:15.081Z,99080.50
2022-12-09T03:43:25.559Z,99072.78
2022-12-09T03:47:27.775Z,99073.06
2022-12-09T03:51:43.203Z,99071.25
2022-12-09T03:56:14.356Z,99079.91
2022-12-09T04:00:18.293Z,99076.25
2022-12-09T04:04:20.435Z,99065.44
2022-12-09T04:08:22.622Z,99073.13
2022-12-09T04:12:24.550Z,99062.66
2022-12-09T04:16:26.417Z,99055.41
2022-12-09T04:20:28.615Z,99057.41
2022-12-09T04:24:30.503Z,99058.88
2022-12-09T04:28:32.446Z,99052.50
2022-12-09T04:32:34.531Z,99043.69
2022-12-09T04:36:36.563Z,99047.53
2022-12-09T04:40:39.107Z,99039.28
2022-12-09T04:44:41.330Z,99036.84
2022-12-09T04:48:43.792Z,99047.56
2022-12-09T04:52:45.680Z,99057.69
2022-12-09T04:56:48.434Z,99063.75
2022-12-09T05:00:50.645Z,99067.94
2022-12-09T05:04:53.001Z,99058.88
2022-12-09T05:08:55.182Z,99063.94
2022-12-09T05:12:57.746Z,99067.72
2022-12-09T05:17:00.076Z,99056.84
2022-12-09T05:21:06.974Z,99072.19
2022-12-09T05:25:09.604Z,99066.69
2022-12-09T05:29:11.688Z,99064.97
2022-12-09T05:33:14.571Z,99055.47
2022-12-09T05:37:16.666Z,99059.88
2022-12-09T05:41:19.098Z,99062.41
2022-12-09T05:45:21.370Z,99063.66
2022-12-09T05:49:23.771Z,99056.94
2022-12-09T05:53:29.126Z,99042.00
2022-12-09T05:57:31.239Z,99049.09
2022-12-09T06:01:33.716Z,99044.19
2022-12-09T06:05:37.238Z,99034.78
2022-12-09T06:09:39.559Z,99032.75
2022-12-09T06:13:41.675Z,99040.91
2022-12-09T06:17:46.705Z,99032.09
2022-12-09T06:21:48.967Z,99044.09
2022-12-09T06:25:50.914Z,99031.09
2022-12-09T06:29:52.957Z,99041.59
2022-12-09T06:33:57.373Z,99047.41
2022-12-09T06:37:59.957Z,99056.97
2022-12-09T06:42:04.492Z,99051.38
2022-12-09T06:46:21.241Z,99054.44
2022-12-09T06:50:23.837Z,99040.66
2022-12-09T06:54:26.627Z,99039.19
2022-12-09T06:58:28.496Z,99053.31
2022-12-09T07:02:35.554Z,99061.75
2022-12-09T07:06:41.159Z,99061.13
2022-12-09T07:10:49.105Z,99066.16
2022-12-09T07:14:53.621Z,99067.31
2022-12-09T07:18:56.429Z,99072.34
2022-12-09T07:22:58.707Z,99063.91
2022-12-09T07:27:04.703Z,99070.34
2022-12-09T07:31:36.618Z,99070.59
2022-12-09T07:35:38.776Z,99068.25
2022-12-09T07:39:41.230Z,99065.69
2022-12-09T07:43:44.497Z,99060.91
2022-12-09T07:47:46.943Z,99068.34
2022-12-09T07:51:49.572Z,99057.09
2022-12-09T07:55:51.646Z,99056.19
2022-12-09T07:59:53.603Z,99060.50
2022-12-09T08:03:56.735Z,99063.69
2022-12-09T08:07:58.979Z,99067.16
2022-12-09T08:12:01.193Z,99067.47
2022-12-09T08:16:07.995Z,99055.16
2022-12-09T08:20:11.271Z,99060.53
2022-12-09T08:24:13.843Z,99056.09
2022-12-09T08:28:17.149Z,99053.66
2022-12-09T08:32:19.441Z,99066.16
2022-12-09T08:36:24.871Z,99063.81
2022-12-09T08:40:27.109Z,99067.94
2022-12-09T08:44:29.221Z,99062.78
2022-12-09T08:48:31.391Z,99056.03
2022-12-09T08:52:40.089Z,99062.97
2022-12-09T08:56:47.614Z,99062.41
2022-12-09T09:00:50.298Z,99057.75
2022-12-09T09:04:52.749Z,99061.56
2022-12-09T09:08:57.514Z,99042.75
2022-12-09T09:12:59.607Z,99039.63
2022-12-09T09:17:01.944Z,99035.72
2022-12-09T09:21:04.377Z,99030.97
2022-12-09T09:25:06.934Z,99040.31
2022-12-09T09:29:13.636Z,99033.03
2022-12-09T09:33:16.153Z,99035.28
2022-12-09T09:37:18.345Z,99037.44
2022-12-09T09:42:09.625Z,99042.72
2022-12-09T09:46:19.797Z,99024.28
2022-12-09T09:50:37.772Z,99020.22
2022-12-09T09:54:40.073Z,99008.75
2022-12-09T09:59:09.686Z,99006.31
2022-12-09T10:03:55.176Z,99007.03
2022-12-09T10:08:36.750Z,99004.31
2022-12-09T10:13:17.898Z,99002.34
2022-12-09T10:17:53.616Z,98990.63
2022-12-09T10:21:56.436Z,98989.69
2022-12-09T10:26:03.183Z,98975.16
2022-12-09T10:30:11.604Z,98974.66
2022-12-09T10:34:14.384Z,98949.50
2022-12-09T10:38:18.921Z,98943.81
2022-12-09T10:42:39.819Z,98948.84
2022-12-09T10:46:41.876Z,98946.25
2022-12-09T10:50:44.327Z,98936.09
2022-12-09T10:55:00.300Z,98946.69
2022-12-09T10:59:27.396Z,98930.13
2022-12-09T11:03:51.114Z,98922.56
2022-12-09T11:07:54.651Z,98937.69
2022-12-09T11:11:57.697Z,98937.72
2022-12-09T11:16:04.814Z,98935.34
2022-12-09T11:20:10.177Z,98931.94
2022-12-09T11:24:22.170Z,98924.41
2022-12-09T11:28:36.930Z,98920.56
2022-12-09T11:33:09.012Z,98930.63
2022-12-09T11:37:14.085Z,98934.63
2022-12-09T11:41:38.707Z,98919.84
2022-12-09T11:45:40.719Z,98910.03
2022-12-09T11:49:59.238Z,98907.13
2022-12-09T11:54:24.355Z,98923.31
2022-12-09T11:58:39.997Z,98921.69
2022-12-09T12:02:46.823Z,98921.13
2022-12-09T12:06:51.828Z,98930.13
2022-12-09T12:11:14.883Z,98917.88
2022-12-09T12:15:47.433Z,98916.50
2022-12-09T12:19:53.197Z,98907.00
2022-12-09T12:24:24.061Z,98920.88
2022-12-09T12:28:50.519Z,98915.13
2022-12-09T12:37:51.709Z,98898.47
2022-12-09T12:43:02.474Z,98892.13
2022-12-09T12:47:54.169Z,98887.78
2022-12-09T12:52:54.987Z,98889.00
2022-12-09T12:57:23.991Z,98878.66
2022-12-09T13:01:55.042Z,98879.16
2022-12-09T13:05:57.293Z,98878.38
2022-12-09T13:10:16.686Z,98878.22
2022-12-09T13:14:23.221Z,98866.03
2022-12-09T13:18:31.754Z,98865.25
2022-12-09T13:23:00.432Z,98867.69
2022-12-09T13:27:14.146Z,98871.56
2022-12-09T13:31:16.665Z,98857.00
2022-12-09T13:35:33.914Z,98855.09
2022-12-09T13:39:42.152Z,98864.81
2022-12-09T13:43:44.137Z,98859.47
2022-12-09T13:47:46.220Z,98865.19
2022-12-09T13:51:51.830Z,98863.16
2022-12-09T13:56:00.764Z,98844.56
2022-12-09T14:00:06.176Z,98849.19
2022-12-09T14:04:11.673Z,98845.38
2022-12-09T14:08:35.937Z,98859.78
2022-12-09T14:12:44.220Z,98853.00
2022-12-09T14:16:46.422Z,98863.03
2022-12-09T14:21:18.333Z,98849.78
2022-12-09T14:25:59.607Z,98844.56
2022-12-09T14:30:21.809Z,98838.06
2022-12-09T14:34:36.466Z,98835.88
2022-12-09T14:43:32.058Z,98842.13
2022-12-09T14:47:46.335Z,98847.84
2022-12-09T14:52:19.180Z,98835.16
2022-12-09T14:56:22.538Z,98842.47
2022-12-09T15:00:37.395Z,98846.16
2022-12-09T15:04:44.573Z,98858.34
2022-12-09T15:08:46.975Z,98853.59
2022-12-09T15:12:58.513Z,98852.81
2022-12-09T15:17:00.331Z,98856.09
2022-12-09T15:21:02.226Z,98847.28
2022-12-09T15:25:05.770Z,98846.22
2022-12-09T15:29:21.052Z,98852.44
2022-12-09T15:33:23.201Z,98846.25
2022-12-09T15:37:27.307Z,98842.38
2022-12-09T15:42:06.614Z,98852.63
2022-12-09T15:46:08.976Z,98864.13
2022-12-09T15:50:41.559Z,98860.50
2022-12-09T15:54:43.459Z,98866.41
2022-12-09T15:58:51.412Z,98870.97
2022-12-09T16:02:53.442Z,98863.28
2022-12-09T16:06:58.413Z,98869.09
2022-12-09T16:11:00.321Z,98877.81
2022-12-09T16:15:03.560Z,98871.66
2022-12-09T16:19:05.480Z,98848.38
2022-12-09T16:23:24.329Z,98853.16
2022-12-09T16:27:28.970Z,98865.28
2022-12-09T16:31:31.492Z,98868.38
2022-12-09T16:35:43.474Z,98871.06
2022-12-09T16:39:45.468Z,98853.00
2022-12-09T16:43:56.206Z,98864.91
2022-12-09T16:47:58.786Z,98848.97
2022-12-09T16:52:01.014Z,98854.22
2022-12-09T16:56:03.416Z,98859.31
2022-12-09T17:00:06.257Z,98855.69
2022-12-09T17:04:31.083Z,98848.91
2022-12-09T17:08:33.464Z,98844.56
2022-12-09T17:12:35.565Z,98848.19
2022-12-09T17:16:46.946Z,98849.97
2022-12-09T17:20:59.489Z,98857.13
2022-12-09T17:25:01.470Z,98854.59
2022-12-09T17:29:03.340Z,98861.91
2022-12-09T17:33:06.063Z,98854.88
2022-12-09T17:37:08.261Z,98856.41
2022-12-09T17:41:14.919Z,98866.00
2022-12-09T17:45:17.226Z,98875.09
2022-12-09T17:49:19.610Z,98868.06
2022-12-09T17:53:21.835Z,98866.88
2022-12-09T17:57:24.043Z,98865.34
2022-12-09T18:01:26.143Z,98865.75
2022-12-09T18:05:34.056Z,98882.47
2022-12-09T18:09:35.913Z,98882.59
2022-12-09T18:13:38.183Z,98882.88
2022-12-09T18:17:42.357Z,98883.88
2022-12-09T18:21:44.686Z,98894.84
2022-12-09T18:25:46.776Z,98876.63
2022-12-09T18:29:48.647Z,98880.78
2022-12-09T18:33:51.804Z,98887.88
2022-12-09T18:37:55.236Z,98873.34
2022-12-09T18:42:00.200Z,98893.56
2022-12-09T18:46:37.063Z,98901.31
2022-12-09T18:50:40.744Z,98906.50
2022-12-09T18:54:42.794Z,98915.22
2022-12-09T18:59:09.988Z,98903.56
2022-12-09T19:03:25.503Z,98907.16
2022-12-09T19:08:04.352Z,98897.97
2022-12-09T19:12:44.909Z,98897.56
2022-12-09T19:16:29.493Z,98908.56
2022-12-09T19:20:40.160Z,98903.06
2022-12-09T19:24:50.601Z,98897.28
2022-12-09T19:29:02.070Z,98890.59
2022-12-09T19:33:04.023Z,98914.41
2022-12-09T19:37:06.999Z,98918.19
2022-12-09T19:41:09.116Z,98907.81
2022-12-09T19:45:14.132Z,98904.34
2022-12-09T19:49:18.103Z,98912.34
2022-12-09T19:53:22.957Z,98920.41
2022-12-09T19:57:25.115Z,98909.72
2022-12-09T20:01:32.879Z,98928.72
2022-12-09T20:05:34.789Z,98918.28
2022-12-09T20:09:37.412Z,98932.44
2022-12-09T20:13:40.402Z,98912.78
2022-12-09T20:17:42.320Z,98911.72
2022-12-09T20:21:50.391Z,98919.91
2022-12-09T20:25:52.288Z,98918.03
2022-12-09T20:30:03.447Z,98911.81
2022-12-09T20:34:08.658Z,98915.97
2022-12-09T20:38:10.947Z,98933.34
2022-12-09T20:42:13.052Z,98932.66
2022-12-09T20:46:19.960Z,98929.78
2022-12-09T20:50:22.006Z,98927.38
2022-12-09T20:54:24.148Z,98930.84
2022-12-09T20:58:26.142Z,98933.00
2022-12-09T21:02:28.751Z,98930.94
2022-12-09T21:06:33.297Z,98935.88
2022-12-09T21:10:37.524Z,98949.34
2022-12-09T21:14:39.408Z,98930.59
2022-12-09T21:18:41.874Z,98928.72
2022-12-09T21:22:43.765Z,98924.88
2022-12-09T21:26:47.235Z,98926.59
2022-12-09T21:30:49.347Z,98928.13
2022-12-09T21:34:51.259Z,98935.03
2022-12-09T21:38:53.665Z,98937.88
2022-12-09T21:42:55.516Z,98947.84
2022-12-09T21:46:57.325Z,98954.28
2022-12-09T21:51:11.160Z,98950.19
2022-12-09T21:55:12.932Z,98955.25
2022-12-09T21:59:30.031Z,98949.47
2022-12-09T22:03:31.878Z,98958.91
2022-12-09T22:07:33.644Z,98958.25
2022-12-09T22:11:37.116Z,98965.53
2022-12-09T22:15:38.867Z,98963.88
2022-12-09T22:19:40.710Z,98984.78
2022-12-09T22:23:42.581Z,98961.09
2022-12-09T22:27:44.451Z,98976.88
2022-12-09T22:31:46.588Z,98973.97
2022-12-09T22:35:48.429Z,98988.88
2022-12-09T22:39:50.607Z,98978.91
2022-12-09T22:43:54.048Z,98974.66
2022-12-09T22:47:55.840Z,98971.16
2022-12-09T22:52:00.569Z,98985.09
2022-12-09T22:56:03.498Z,98983.72
2022-12-09T23:00:11.508Z,98981.00
2022-12-09T23:04:15.020Z,98974.22
2022-12-09T23:08:17.148Z,98983.56
2022-12-09T23:12:18.977Z,98985.47
2022-12-09T23:16:25.279Z,98977.25
2022-12-09T23:20:27.211Z,98970.91
2022-12-09T23:24:29.020Z,98976.69
2022-12-09T23:28:32.615Z,98983.31
2022-12-09T23:32:34.439Z,98973.28
2022-12-09T23:36:38.814Z,98977.25
2022-12-09T23:40:40.660Z,98976.44
2022-12-09T23:44:42.454Z,98979.31
2022-12-09T23:48:45.125Z,98984.47
2022-12-09T23:52:46.938Z,98981.91
2022-12-09T23:56:50.013Z,98979.56
